Time;durP1;ratioP1;P1;durP2;ratioP2;P2;SDS_P1;SDS_P2;PMS_P1;PMS_P2;Temp;Humidity;BMP_temperature;BMP_pressure;BME280_temperature;BME280_humidity;BME280_pressure;Samples;Min_cycle;Max_cycle;Signal;HPM_P1;HPM_P2
2023/05/25 00:02:19;;;;;;;9.07;5.33;;;;;;;9.29;100.00;97396.75;5072747;27;20295;-63
2023/05/25 00:04:47;;;;;;;11.40;6.03;;;;;;;9.29;100.00;97394.09;5027549;27;20615;-64
2023/05/25 00:07:17;;;;;;;9.03;5.50;;;;;;;9.31;100.00;97393.94;5070013;27;20206;-63
2023/05/25 00:09:45;;;;;;;10.37;6.50;;;;;;;9.27;100.00;97396.09;5074940;27;20922;-64
2023/05/25 00:12:14;;;;;;;9.40;5.80;;;;;;;9.26;100.00;97391.78;5058391;27;20368;-62
2023/05/25 00:14:42;;;;;;;8.00;6.53;;;;;;;9.31;100.00;97378.88;5058872;27;20294;-64
2023/05/25 00:17:10;;;;;;;6.60;5.27;;;;;;;9.26;100.00;97373.28;5075632;27;20220;-62
2023/05/25 00:19:41;;;;;;;12.77;5.90;;;;;;;9.35;100.00;97371.44;5025506;27;20214;-60
2023/05/25 00:22:09;;;;;;;10.47;6.00;;;;;;;9.33;100.00;97371.59;5075069;27;20240;-61
2023/05/25 00:24:39;;;;;;;11.53;6.97;;;;;;;9.39;100.00;97375.38;5071183;27;20198;-62
2023/05/25 00:27:07;;;;;;;8.87;5.87;;;;;;;9.36;100.00;97376.53;5054466;27;20530;-64
2023/05/25 00:29:35;;;;;;;8.73;5.87;;;;;;;9.36;100.00;97373.09;5048746;27;20404;-62
2023/05/25 00:32:04;;;;;;;9.13;5.47;;;;;;;9.31;100.00;97376.25;5073601;27;20226;-64
2023/05/25 00:34:32;;;;;;;6.63;5.33;;;;;;;9.33;100.00;97368.16;5027992;27;20287;-62
2023/05/25 00:36:59;;;;;;;7.77;5.87;;;;;;;9.38;100.00;97365.81;5072007;28;20225;-64
2023/05/25 00:39:27;;;;;;;9.57;6.23;;;;;;;9.18;100.00;97345.06;5062231;27;20201;-63
2023/05/25 00:41:56;;;;;;;11.13;6.23;;;;;;;9.34;100.00;97370.59;5050457;27;20389;-64
2023/05/25 00:44:24;;;;;;;7.43;5.33;;;;;;;9.41;100.00;97362.81;5076782;27;20233;-64
2023/05/25 00:46:52;;;;;;;8.57;5.47;;;;;;;9.37;100.00;97358.88;5050472;27;20217;-62
2023/05/25 00:49:21;;;;;;;10.57;6.33;;;;;;;9.34;100.00;97361.88;5014159;27;20630;-63
2023/05/25 00:51:52;;;;;;;6.73;5.97;;;;;;;9.37;100.00;97367.63;5074867;27;20275;-64
2023/05/25 00:54:20;;;;;;;7.00;5.50;;;;;;;9.31;100.00;97357.72;5071817;27;20210;-64
2023/05/25 00:56:51;;;;;;;9.23;5.90;;;;;;;9.34;100.00;97361.88;5054921;27;20300;-63
2023/05/25 00:59:34;;;;;;;9.17;5.30;;;;;;;9.30;100.00;97356.09;5076718;27;20712;-62
2023/05/25 01:02:04;;;;;;;8.27;5.77;;;;;;;9.24;100.00;97357.59;5044522;27;20243;-62
2023/05/25 01:04:34;;;;;;;9.60;5.53;;;;;;;9.16;100.00;97354.97;5021088;27;20684;-64
2023/05/25 01:07:04;;;;;;;10.17;5.17;;;;;;;9.16;100.00;97368.19;5070823;27;20236;-64
2023/05/25 01:09:33;;;;;;;10.43;5.70;;;;;;;9.14;100.00;97366.72;5065379;27;20206;-61
2023/05/25 01:12:02;;;;;;;11.10;5.63;;;;;;;9.15;100.00;97368.38;5052941;27;20794;-63
2023/05/25 01:14:32;;;;;;;8.47;5.37;;;;;;;9.11;100.00;97363.44;5076428;27;20226;-61
2023/05/25 01:17:02;;;;;;;12.30;5.90;;;;;;;9.20;100.00;97366.84;5046926;27;20305;-62
2023/05/25 01:19:32;;;;;;;11.30;5.73;;;;;;;9.06;100.00;97338.50;5055106;27;20688;-62
2023/05/25 01:22:05;;;;;;;6.50;5.13;;;;;;;9.30;100.00;97363.22;5059744;27;20748;-62
2023/05/25 01:24:39;;;;;;;9.23;6.80;;;;;;;9.32;100.00;97366.50;5065406;27;20599;-63
2023/05/25 01:27:10;;;;;;;13.70;6.00;;;;;;;9.37;100.00;97364.16;5071421;28;20740;-62
2023/05/25 01:29:40;;;;;;;8.57;5.60;;;;;;;9.43;100.00;97371.41;5049388;28;20759;-63
2023/05/25 01:32:08;;;;;;;10.20;6.00;;;;;;;9.46;100.00;97370.22;5070074;28;20693;-62
2023/05/25 01:34:37;;;;;;;11.27;6.33;;;;;;;9.41;100.00;97370.75;5043033;28;20224;-62
2023/05/25 01:37:06;;;;;;;9.83;5.53;;;;;;;9.44;100.00;97378.34;5018311;28;20671;-62
2023/05/25 01:39:34;;;;;;;10.70;5.57;;;;;;;9.45;100.00;97366.75;5064160;28;20701;-62
2023/05/25 01:42:02;;;;;;;7.47;5.37;;;;;;;9.42;100.00;97364.47;5071313;28;20811;-62
2023/05/25 01:44:29;;;;;;;9.93;6.30;;;;;;;9.43;100.00;97366.13;5052330;28;20783;-62
2023/05/25 01:47:03;;;;;;;8.03;6.10;;;;;;;9.36;100.00;97365.16;5067305;28;20304;-63
2023/05/25 01:49:37;;;;;;;11.63;6.10;;;;;;;9.32;100.00;97362.03;5042665;28;20209;-62
2023/05/25 01:52:13;;;;;;;12.60;6.33;;;;;;;9.25;100.00;97356.59;5017952;28;20320;-63
2023/05/25 01:54:45;;;;;;;10.67;5.50;;;;;;;9.19;100.00;97353.81;5073698;28;20552;-62
2023/05/25 01:57:15;;;;;;;9.27;5.70;;;;;;;9.20;100.00;97356.28;5063948;28;21038;-65
2023/05/25 01:59:45;;;;;;;12.00;5.87;;;;;;;9.19;100.00;97357.28;5061257;28;20386;-63
2023/05/25 02:02:15;;;;;;;8.37;5.60;;;;;;;9.17;100.00;97356.63;5069385;28;20221;-64
2023/05/25 02:04:43;;;;;;;9.60;6.40;;;;;;;8.93;100.00;97324.00;5043546;28;20983;-62
2023/05/25 02:07:12;;;;;;;8.17;6.20;;;;;;;9.17;100.00;97350.53;5065679;28;20301;-60
2023/05/25 02:09:40;;;;;;;12.07;5.53;;;;;;;9.23;100.00;97360.41;5038468;28;20544;-62
2023/05/25 02:12:08;;;;;;;9.63;6.37;;;;;;;9.14;100.00;97350.88;5072126;28;20758;-61
2023/05/25 02:14:36;;;;;;;9.53;6.77;;;;;;;9.22;100.00;97351.63;5050916;28;20375;-62
2023/05/25 02:17:04;;;;;;;9.27;6.30;;;;;;;9.12;100.00;97351.03;5074881;28;20288;-62
2023/05/25 02:19:31;;;;;;;9.17;6.30;;;;;;;9.19;100.00;97356.47;5046374;28;20318;-59
2023/05/25 02:21:59;;;;;;;6.57;5.50;;;;;;;9.10;100.00;97372.34;5076443;27;20339;-62
2023/05/25 02:24:28;;;;;;;8.33;5.67;;;;;;;9.18;100.00;97360.09;5019399;27;20213;-60
2023/05/25 02:26:56;;;;;;;9.63;5.70;;;;;;;9.17;100.00;97350.53;5076180;27;20295;-60
2023/05/25 02:29:24;;;;;;;9.67;5.90;;;;;;;9.05;100.00;97342.13;5061329;27;21715;-62
2023/05/25 02:31:52;;;;;;;9.87;6.10;;;;;;;9.17;100.00;97351.34;5074363;27;20225;-61
2023/05/25 02:34:20;;;;;;;8.77;6.00;;;;;;;9.16;100.00;97354.97;5075576;27;20356;-62
2023/05/25 02:36:48;;;;;;;9.60;5.70;;;;;;;9.18;100.00;97354.81;5050990;27;20572;-61
2023/05/25 02:39:16;;;;;;;8.00;5.87;;;;;;;9.16;100.00;97354.97;5047822;27;20668;-62
2023/05/25 02:41:45;;;;;;;8.40;5.47;;;;;;;9.08;100.00;97357.66;5052130;27;20454;-63
2023/05/25 02:44:13;;;;;;;10.70;6.37;;;;;;;9.08;100.00;97347.06;5053539;27;20479;-64
2023/05/25 02:46:40;;;;;;;9.13;6.40;;;;;;;9.11;100.00;97359.94;5057180;27;20279;-63
2023/05/25 02:49:08;;;;;;;8.83;6.30;;;;;;;9.06;100.00;97357.81;5068182;27;20243;-62
2023/05/25 02:51:36;;;;;;;7.67;5.67;;;;;;;8.99;100.00;97359.47;5053574;27;20366;-60
2023/05/25 02:54:04;;;;;;;10.63;6.60;;;;;;;9.00;100.00;97369.06;5076945;27;20685;-61
2023/05/25 02:56:32;;;;;;;10.40;6.93;;;;;;;9.01;100.00;97365.44;5024980;27;20207;-64
2023/05/25 02:59:01;;;;;;;10.30;7.20;;;;;;;8.96;100.00;97367.75;5076804;27;20806;-60
2023/05/25 03:01:29;;;;;;;11.03;6.43;;;;;;;8.97;100.00;97369.41;5045541;27;20202;-61
2023/05/25 03:03:57;;;;;;;10.10;6.70;;;;;;;8.94;100.00;97370.59;5003280;28;20924;-62
2023/05/25 03:06:25;;;;;;;10.07;6.40;;;;;;;8.91;100.00;97373.56;5051214;28;20676;-62
2023/05/25 03:08:53;;;;;;;7.60;5.73;;;;;;;8.96;100.00;97368.59;5013198;28;20733;-63
2023/05/25 03:11:21;;;;;;;10.33;6.20;;;;;;;8.92;100.00;97372.56;4998211;28;20247;-64
2023/05/25 03:13:50;;;;;;;7.67;5.70;;;;;;;8.94;100.00;97372.38;5029931;28;20205;-65
2023/05/25 03:16:19;;;;;;;11.70;7.23;;;;;;;8.90;100.00;97371.91;5050368;28;20202;-63
2023/05/25 03:18:46;;;;;;;9.37;5.87;;;;;;;8.91;100.00;97378.00;5024546;28;20249;-64
2023/05/25 03:21:15;;;;;;;10.47;6.47;;;;;;;8.91;100.00;97378.00;5053197;28;20297;-66
2023/05/25 03:23:42;;;;;;;10.10;6.77;;;;;;;8.92;100.00;97380.50;5004692;28;20245;-61
2023/05/25 03:26:10;;;;;;;13.30;6.00;;;;;;;8.91;100.00;97376.22;5042118;28;20956;-60
2023/05/25 03:28:38;;;;;;;10.00;6.73;;;;;;;8.91;100.00;97385.94;4992167;28;20224;-61
2023/05/25 03:31:06;;;;;;;8.93;6.40;;;;;;;8.95;100.00;97385.44;5053510;28;20818;-61
2023/05/25 03:33:35;;;;;;;10.13;5.40;;;;;;;8.94;100.00;97380.31;5031029;28;20805;-63
2023/05/25 03:36:07;;;;;;;10.97;7.60;;;;;;;8.93;100.00;97382.16;5052385;28;20222;-63
2023/05/25 03:38:35;;;;;;;7.80;5.87;;;;;;;8.93;100.00;97384.78;5020261;28;20242;-61
2023/05/25 03:41:02;;;;;;;8.53;6.27;;;;;;;8.94;100.00;97386.44;5036173;28;20593;-63
2023/05/25 03:43:30;;;;;;;7.07;6.43;;;;;;;8.92;100.00;97387.59;5004659;28;20226;-61
2023/05/25 03:45:58;;;;;;;10.23;6.87;;;;;;;8.93;100.00;97379.50;5046129;28;20382;-62
2023/05/25 03:48:26;;;;;;;8.03;6.00;;;;;;;8.87;100.00;97382.78;5042024;28;20212;-60
2023/05/25 03:50:55;;;;;;;9.07;6.07;;;;;;;8.97;100.00;97387.91;5028471;28;20660;-60
2023/05/25 03:53:23;;;;;;;11.50;6.03;;;;;;;9.00;100.00;97387.56;5046555;28;20525;-63
2023/05/25 03:55:50;;;;;;;10.53;6.40;;;;;;;9.02;100.00;97382.13;5007296;28;20877;-60
2023/05/25 03:58:19;;;;;;;7.83;6.23;;;;;;;9.05;100.00;97390.53;5050848;28;20226;-60
2023/05/25 04:00:48;;;;;;;7.70;6.93;;;;;;;9.16;100.00;97396.47;4994508;28;20397;-62
2023/05/25 04:03:16;;;;;;;10.53;6.33;;;;;;;9.20;100.00;97398.56;5043785;28;20308;-62
2023/05/25 04:05:44;;;;;;;9.60;6.60;;;;;;;9.26;100.00;97399.72;5025865;28;20211;-64
2023/05/25 04:08:16;;;;;;;14.37;6.03;;;;;;;9.20;100.00;97398.56;5040379;28;20473;-61
2023/05/25 04:10:44;;;;;;;9.93;6.40;;;;;;;9.18;100.00;97395.28;5009164;28;20296;-64
2023/05/25 04:13:12;;;;;;;10.93;6.67;;;;;;;9.22;100.00;97401.88;5047364;28;20218;-62
2023/05/25 04:15:40;;;;;;;10.03;7.40;;;;;;;9.28;100.00;97395.09;5004132;28;20202;-62
2023/05/25 04:18:08;;;;;;;11.80;6.73;;;;;;;9.33;100.00;97405.16;5042592;28;20226;-62
2023/05/25 04:20:36;;;;;;;10.17;6.17;;;;;;;9.34;100.00;97404.97;5017912;28;20207;-63
2023/05/25 04:23:04;;;;;;;7.77;6.30;;;;;;;9.36;100.00;97404.81;5044042;28;20713;-62
2023/05/25 04:25:34;;;;;;;9.73;6.00;;;;;;;9.27;100.00;97402.19;5021232;28;20211;-62
2023/05/25 04:28:01;;;;;;;9.67;6.33;;;;;;;9.34;100.00;97409.47;5033616;28;20229;-61
2023/05/25 04:30:30;;;;;;;9.30;5.87;;;;;;;9.31;100.00;97402.69;5002611;28;20595;-64
2023/05/25 04:33:01;;;;;;;13.03;6.63;;;;;;;9.38;100.00;97416.06;5042058;28;20752;-62
2023/05/25 04:35:30;;;;;;;12.60;6.73;;;;;;;9.47;100.00;97422.97;5023190;28;20977;-63
2023/05/25 04:37:59;;;;;;;9.10;6.27;;;;;;;9.41;100.00;97413.06;5042159;28;20373;-63
2023/05/25 04:40:27;;;;;;;11.43;6.93;;;;;;;9.59;100.00;97427.88;5036752;28;20647;-63
2023/05/25 04:42:56;;;;;;;6.27;5.67;;;;;;;9.70;100.00;97419.56;5010404;28;20268;-62
2023/05/25 04:45:24;;;;;;;10.47;6.43;;;;;;;9.72;100.00;97428.16;4998812;28;20316;-64
2023/05/25 04:47:52;;;;;;;12.20;7.17;;;;;;;9.73;100.00;97431.63;5046482;28;20267;-63
2023/05/25 04:50:20;;;;;;;10.07;6.10;;;;;;;9.68;100.00;97422.38;5025283;28;20210;-62
2023/05/25 04:52:48;;;;;;;11.27;6.60;;;;;;;9.45;100.00;97393.22;5021065;28;20411;-65
2023/05/25 04:55:16;;;;;;;12.60;6.40;;;;;;;9.68;100.00;97419.72;5011015;28;20282;-62
2023/05/25 04:57:43;;;;;;;11.90;6.73;;;;;;;9.77;100.00;97419.69;5020725;28;20217;-62
2023/05/25 05:00:14;;;;;;;6.93;6.03;;;;;;;9.86;100.00;97423.97;4987050;28;20942;-61
2023/05/25 05:02:42;;;;;;;9.00;6.67;;;;;;;9.86;100.00;97416.03;5027712;28;20230;-62
2023/05/25 05:05:10;;;;;;;8.73;6.77;;;;;;;9.73;100.00;97411.28;5040970;28;20864;-63
2023/05/25 05:07:38;;;;;;;8.63;7.23;;;;;;;9.75;100.00;97422.53;4998850;28;20206;-63
2023/05/25 05:10:07;;;;;;;8.17;6.27;;;;;;;9.84;100.00;97416.19;5033844;28;20544;-64
2023/05/25 05:12:35;;;;;;;13.50;7.67;;;;;;;9.86;100.00;97423.97;5039572;28;20415;-63
2023/05/25 05:15:03;;;;;;;11.13;7.67;;;;;;;9.95;100.00;97430.84;4970010;28;21812;-62
2023/05/25 05:17:32;;;;;;;7.93;7.03;;;;;;;10.06;100.00;97432.28;5045265;28;20218;-63
2023/05/25 05:20:00;;;;;;;11.53;6.80;;;;;;;10.12;100.00;97433.41;5034146;28;20234;-64
2023/05/25 05:22:28;;;;;;;10.43;7.53;;;;;;;10.34;100.00;97431.75;5018845;28;20821;-62
2023/05/25 05:24:56;;;;;;;10.20;6.50;;;;;;;10.31;100.00;97431.31;5017594;28;20279;-63
2023/05/25 05:27:25;;;;;;;13.63;7.80;;;;;;;10.52;100.00;97433.34;5044870;28;20202;-62
2023/05/25 05:29:52;;;;;;;9.07;6.57;;;;;;;10.75;100.00;97432.47;5016657;28;20214;-62
2023/05/25 05:32:20;;;;;;;8.00;7.20;;;;;;;10.93;100.00;97446.25;4990914;28;20232;-62
2023/05/25 05:34:49;;;;;;;8.17;6.53;;;;;;;11.04;100.00;97442.34;5019010;28;21082;-62
2023/05/25 05:37:17;;;;;;;9.10;6.13;;;;;;;11.28;100.00;97454.53;5037625;28;20299;-63
2023/05/25 05:39:45;;;;;;;7.93;6.10;;;;;;;11.52;100.00;97457.09;5010290;28;20522;-63
2023/05/25 05:42:13;;;;;;;17.87;7.63;;;;;;;11.60;100.00;97461.50;5052009;28;20321;-63
2023/05/25 05:44:41;;;;;;;6.43;5.70;;;;;;;11.75;100.00;97456.97;4999643;28;22388;-62
2023/05/25 05:47:08;;;;;;;6.47;5.77;;;;;;;11.92;100.00;97446.97;4993949;28;20702;-63
2023/05/25 05:49:37;;;;;;;7.17;6.10;;;;;;;12.07;100.00;97446.97;5051105;28;20355;-60
2023/05/25 05:52:09;;;;;;;9.27;6.30;;;;;;;12.13;100.00;97448.88;5049267;28;20229;-61
2023/05/25 05:54:37;;;;;;;9.13;5.83;;;;;;;12.41;100.00;97449.97;5020605;28;20839;-60
2023/05/25 05:57:05;;;;;;;8.67;6.33;;;;;;;12.58;100.00;97445.25;5053395;28;20470;-62
2023/05/25 05:59:33;;;;;;;10.10;6.10;;;;;;;12.61;100.00;97449.38;5044840;28;20367;-64
2023/05/25 06:02:00;;;;;;;8.60;5.60;;;;;;;12.59;100.00;97449.53;5027035;28;20303;-63
2023/05/25 06:04:28;;;;;;;8.50;5.57;;;;;;;12.82;100.00;97453.84;5000930;28;20297;-62
2023/05/25 06:06:56;;;;;;;11.73;6.23;;;;;;;12.79;100.00;97451.56;5054635;28;20242;-63
2023/05/25 06:09:26;;;;;;;10.17;5.87;;;;;;;12.82;100.00;97430.72;5012532;28;20244;-61
2023/05/25 06:11:54;;;;;;;9.63;6.20;;;;;;;12.90;100.00;97455.56;5052530;28;20230;-62
2023/05/25 06:14:21;;;;;;;7.43;5.00;;;;;;;12.84;100.00;97431.34;5040168;28;20720;-62
2023/05/25 06:16:49;;;;;;;14.13;6.00;;;;;;;12.98;100.00;97442.91;5005045;28;20815;-64
2023/05/25 06:19:17;;;;;;;7.90;5.47;;;;;;;13.06;100.00;97444.63;5007233;28;20316;-63
2023/05/25 06:21:45;;;;;;;8.97;6.07;;;;;;;13.34;100.00;97448.28;5052656;28;20644;-63
2023/05/25 06:24:14;;;;;;;9.30;6.00;;;;;;;13.32;100.00;97438.66;5027198;28;21552;-63
2023/05/25 06:26:43;;;;;;;12.00;5.83;;;;;;;13.45;100.00;97443.25;5004421;28;20337;-62
2023/05/25 06:29:11;;;;;;;12.47;5.60;;;;;;;13.29;100.00;97417.75;5049246;28;20195;-65
2023/05/25 06:31:42;;;;;;;13.90;6.33;;;;;;;13.43;100.00;97439.97;5020441;28;20579;-63
2023/05/25 06:34:09;;;;;;;8.10;5.33;;;;;;;13.56;100.00;97441.06;5002033;28;20721;-64
2023/05/25 06:36:38;;;;;;;9.90;5.57;;;;;;;13.75;100.00;97451.00;5050540;28;20217;-64
2023/05/25 06:39:06;;;;;;;9.53;5.30;;;;;;;13.88;100.00;97452.06;5017837;28;20522;-65
2023/05/25 06:41:33;;;;;;;8.20;5.40;;;;;;;14.00;100.00;97447.81;5033112;28;20635;-64
2023/05/25 06:44:02;;;;;;;12.23;5.43;;;;;;;14.00;100.00;97450.47;5051367;28;20230;-64
2023/05/25 06:46:31;;;;;;;10.87;5.73;;;;;;;14.01;100.00;97451.31;5022005;28;20229;-63
2023/05/25 06:48:59;;;;;;;6.83;5.50;;;;;;;13.98;100.00;97457.03;5028039;28;20527;-62
2023/05/25 06:51:27;;;;;;;7.37;5.57;;;;;;;14.24;100.00;97450.16;4998434;28;20234;-61
2023/05/25 06:53:55;;;;;;;10.93;5.07;;;;;;;14.27;100.00;97461.22;5045744;28;20720;-64
2023/05/25 06:56:24;;;;;;;9.33;5.40;;;;;;;14.21;100.00;97456.69;5004294;28;20207;-64
2023/05/25 06:58:51;;;;;;;9.47;5.97;;;;;;;14.50;100.00;97460.06;5054435;28;20209;-66
2023/05/25 07:01:21;;;;;;;9.23;5.50;;;;;;;14.51;98.33;97466.19;5032330;28;20283;-64
2023/05/25 07:03:49;;;;;;;9.63;5.50;;;;;;;14.68;96.98;97461.31;5018500;28;20206;-64
2023/05/25 07:06:17;;;;;;;6.77;5.57;;;;;;;14.56;95.79;97464.56;5002011;28;20250;-63
2023/05/25 07:08:44;;;;;;;13.53;6.53;;;;;;;14.39;97.62;97461.47;5015060;28;20960;-64
2023/05/25 07:11:13;;;;;;;10.20;5.70;;;;;;;14.66;98.59;97455.34;5013803;28;20230;-64
2023/05/25 07:13:40;;;;;;;8.83;5.40;;;;;;;14.72;100.00;97463.41;5052236;28;20500;-64
2023/05/25 07:16:08;;;;;;;6.17;4.90;;;;;;;14.69;98.32;97461.13;5048878;28;20274;-63
2023/05/25 07:18:40;;;;;;;11.67;5.47;;;;;;;14.68;95.52;97458.63;5020777;28;20296;-62
2023/05/25 07:21:09;;;;;;;8.93;5.63;;;;;;;14.76;100.00;97463.78;4997804;28;20320;-62
2023/05/25 07:23:37;;;;;;;6.23;4.97;;;;;;;15.04;98.02;97471.63;5041134;28;22501;-62
2023/05/25 07:26:05;;;;;;;13.43;5.57;;;;;;;15.00;95.42;97473.06;4995377;28;21587;-63
2023/05/25 07:28:33;;;;;;;12.37;5.67;;;;;;;15.03;93.43;97472.66;5027205;28;20415;-62
2023/05/25 07:31:01;;;;;;;11.40;5.47;;;;;;;15.11;95.71;97450.25;5026280;28;20415;-61
2023/05/25 07:33:29;;;;;;;8.87;6.20;;;;;;;15.21;93.28;97473.06;5025205;28;20812;-64
2023/05/25 07:35:58;;;;;;;10.40;6.03;;;;;;;15.29;95.28;97454.97;5016455;28;20412;-62
2023/05/25 07:38:25;;;;;;;10.10;5.80;;;;;;;15.55;91.15;97476.50;5041642;28;20234;-65
2023/05/25 07:40:53;;;;;;;7.73;5.90;;;;;;;15.56;91.05;97472.81;5041689;28;20258;-64
2023/05/25 07:43:21;;;;;;;8.97;5.70;;;;;;;15.72;91.22;97474.19;5017846;28;20545;-64
2023/05/25 07:45:51;;;;;;;10.40;6.13;;;;;;;15.91;88.47;97481.34;5049402;28;20307;-62
2023/05/25 07:48:19;;;;;;;6.63;4.90;;;;;;;15.95;86.22;97479.09;5028465;28;20478;-64
2023/05/25 07:50:47;;;;;;;10.10;5.67;;;;;;;15.70;87.06;97482.41;5019913;28;20210;-64
2023/05/25 07:53:16;;;;;;;9.50;5.97;;;;;;;15.73;82.76;97484.66;4996185;28;20501;-62
2023/05/25 07:55:44;;;;;;;9.63;6.23;;;;;;;15.63;87.10;97479.75;5049745;28;20277;-64
2023/05/25 07:58:12;;;;;;;7.27;5.17;;;;;;;15.91;85.11;97486.69;5026570;28;20913;-64
2023/05/25 08:00:40;;;;;;;7.33;5.97;;;;;;;15.85;84.12;97492.03;5027735;28;20234;-63
2023/05/25 08:03:07;;;;;;;10.40;6.33;;;;;;;15.90;87.64;97486.91;5026044;28;20623;-63
2023/05/25 08:05:35;;;;;;;5.90;5.37;;;;;;;16.01;85.32;97486.25;5019672;28;20297;-64
2023/05/25 08:08:03;;;;;;;10.93;6.27;;;;;;;15.98;83.42;97485.84;4993016;28;20734;-62
2023/05/25 08:10:32;;;;;;;6.57;5.17;;;;;;;16.05;81.65;97486.63;5043531;28;20852;-63
2023/05/25 08:13:00;;;;;;;7.47;5.40;;;;;;;16.05;82.98;97489.31;5028679;28;20321;-62
2023/05/25 08:15:28;;;;;;;6.03;5.43;;;;;;;16.14;83.51;97480.03;5027153;28;20600;-64
2023/05/25 08:17:56;;;;;;;6.47;5.37;;;;;;;16.03;81.41;97489.53;5010032;28;20256;-62
2023/05/25 08:20:24;;;;;;;8.03;5.80;;;;;;;15.90;80.63;97485.06;5022313;28;20230;-62
2023/05/25 08:22:53;;;;;;;6.33;5.70;;;;;;;15.89;80.95;97482.59;4995886;28;20241;-63
2023/05/25 08:25:21;;;;;;;10.37;5.37;;;;;;;16.13;78.65;97485.59;5043888;28;20311;-64
2023/05/25 08:27:50;;;;;;;8.93;5.50;;;;;;;16.14;80.42;97482.72;5031743;28;20253;-60
2023/05/25 08:30:18;;;;;;;8.33;5.90;;;;;;;16.17;79.00;97476.94;5010524;28;20632;-61
2023/05/25 08:32:45;;;;;;;6.83;4.87;;;;;;;16.27;77.58;97476.47;5030894;28;20226;-62
2023/05/25 08:35:14;;;;;;;9.17;6.60;;;;;;;16.31;76.73;97479.53;5032139;28;20296;-63
2023/05/25 08:37:42;;;;;;;6.87;5.40;;;;;;;16.27;76.25;97479.13;5021901;28;20206;-62
2023/05/25 08:40:14;;;;;;;7.10;5.27;;;;;;;16.57;81.43;97485.78;4999523;28;20598;-65
2023/05/25 08:42:43;;;;;;;6.03;4.80;;;;;;;16.61;72.81;97479.78;5053593;28;20872;-62
2023/05/25 08:45:12;;;;;;;7.07;5.50;;;;;;;16.38;73.63;97466.94;5007765;28;20304;-64
2023/05/25 08:48:00;;;;;;;5.20;4.73;;;;;;;16.56;72.76;97468.91;5044411;28;20236;-62
2023/05/25 08:50:30;;;;;;;7.47;5.23;;;;;;;16.77;73.67;97486.47;5027190;28;20732;-62
2023/05/25 08:52:59;;;;;;;9.30;5.83;;;;;;;16.68;71.12;97485.09;5017788;28;20540;-60
2023/05/25 08:55:27;;;;;;;6.60;5.27;;;;;;;16.80;72.99;97485.22;4998047;28;20694;-62
2023/05/25 08:57:57;;;;;;;5.30;4.77;;;;;;;16.88;71.50;97494.84;5046384;28;20301;-62
2023/05/25 09:00:29;;;;;;;6.87;5.50;;;;;;;16.88;71.10;97468.88;5024699;28;20776;-61
2023/05/25 09:03:00;;;;;;;7.20;4.90;;;;;;;17.16;70.61;97482.91;5019574;28;20241;-64
2023/05/25 09:05:28;;;;;;;5.20;4.70;;;;;;;17.17;71.17;97487.22;5020474;28;21037;-59
2023/05/25 09:07:56;;;;;;;9.97;6.07;;;;;;;17.32;65.24;97493.06;5026020;28;20206;-61
2023/05/25 09:10:26;;;;;;;9.53;5.23;;;;;;;17.42;69.97;97486.41;4987452;28;20214;-62
2023/05/25 09:12:54;;;;;;;6.63;4.83;;;;;;;17.39;64.18;97489.50;5046829;28;20249;-61
2023/05/25 09:15:22;;;;;;;5.67;5.03;;;;;;;17.49;63.61;97492.50;5022484;28;20586;-63
2023/05/25 09:17:51;;;;;;;6.07;5.17;;;;;;;17.56;61.34;97482.53;5017992;28;20234;-61
2023/05/25 09:20:19;;;;;;;5.93;5.37;;;;;;;17.58;65.08;97483.13;5026795;28;20601;-62
2023/05/25 09:22:47;;;;;;;5.37;4.87;;;;;;;17.48;64.55;97480.16;5043035;28;20340;-58
2023/05/25 09:25:19;;;;;;;8.17;5.30;;;;;;;17.50;64.93;97486.09;4966545;28;21467;-62
2023/05/25 09:27:46;;;;;;;5.93;4.40;;;;;;;17.69;65.51;97486.94;5043692;28;20264;-60
2023/05/25 09:30:14;;;;;;;6.97;5.53;;;;;;;17.76;63.10;97482.31;5042169;28;20235;-64
2023/05/25 09:32:42;;;;;;;10.30;5.33;;;;;;;17.80;62.30;97485.38;5002157;28;20237;-60
2023/05/25 09:35:12;;;;;;;5.33;4.73;;;;;;;18.01;62.86;97488.69;5024049;28;20313;-63
2023/05/25 09:37:41;;;;;;;7.27;5.60;;;;;;;18.08;65.40;97486.75;5045924;28;20255;-62
2023/05/25 09:40:10;;;;;;;9.83;4.73;;;;;;;18.04;62.02;97486.38;5019623;28;21692;-61
2023/05/25 09:42:38;;;;;;;8.03;5.47;;;;;;;18.05;62.17;97476.47;4997681;28;20391;-61
2023/05/25 09:45:07;;;;;;;7.23;5.13;;;;;;;18.26;58.31;97498.50;5045977;28;20403;-62
2023/05/25 09:47:36;;;;;;;7.07;4.83;;;;;;;18.32;62.22;97495.72;5022129;28;20517;-61
2023/05/25 09:50:05;;;;;;;7.10;5.00;;;;;;;18.37;60.56;97492.34;5002831;28;20221;-66
2023/05/25 09:52:35;;;;;;;6.10;4.73;;;;;;;18.28;57.60;97491.03;5045753;28;20219;-63
2023/05/25 09:55:04;;;;;;;7.90;5.50;;;;;;;18.39;61.89;97484.91;5043334;28;20203;-63
2023/05/25 09:57:31;;;;;;;6.10;4.60;;;;;;;18.31;61.10;97485.22;4972142;28;20257;-62
2023/05/25 09:59:59;;;;;;;10.17;5.50;;;;;;;18.06;58.18;97457.47;5049569;28;20503;-61
2023/05/25 10:02:28;;;;;;;5.60;4.73;;;;;;;18.39;59.44;97484.09;5028603;28;20698;-63
2023/05/25 10:04:56;;;;;;;8.77;5.30;;;;;;;18.46;57.48;97490.19;5018690;28;20317;-61
2023/05/25 10:07:24;;;;;;;6.57;5.70;;;;;;;18.32;57.17;97460.88;5014069;28;20677;-62
2023/05/25 10:09:54;;;;;;;11.43;5.37;;;;;;;18.46;57.01;97482.97;5043942;28;20190;-63
2023/05/25 10:12:24;;;;;;;6.57;5.33;;;;;;;18.52;58.54;97489.25;4975324;28;20732;-60
2023/05/25 10:14:53;;;;;;;7.50;5.13;;;;;;;18.46;56.37;97482.13;5047311;28;20713;-62
2023/05/25 10:17:24;;;;;;;7.30;4.77;;;;;;;18.54;58.29;97492.53;5031466;28;20215;-61
2023/05/25 10:19:55;;;;;;;6.63;4.63;;;;;;;18.61;55.94;97497.81;5020807;28;20623;-61
2023/05/25 10:22:27;;;;;;;6.30;4.83;;;;;;;18.66;57.31;97482.69;5018217;28;20260;-61
2023/05/25 10:24:59;;;;;;;7.13;5.03;;;;;;;18.79;61.40;97465.56;5044351;28;20536;-62
2023/05/25 10:27:32;;;;;;;6.20;4.57;;;;;;;19.05;57.05;97492.25;5005446;28;20229;-60
2023/05/25 10:30:01;;;;;;;5.90;5.37;;;;;;;19.05;56.26;97492.25;5000808;28;20604;-64
2023/05/25 10:32:29;;;;;;;6.33;4.60;;;;;;;19.08;57.17;97499.84;5042017;28;20226;-62
2023/05/25 10:34:58;;;;;;;5.00;4.40;;;;;;;18.91;52.91;97484.34;5020049;28;20214;-63
2023/05/25 10:37:27;;;;;;;5.20;4.53;;;;;;;18.95;56.05;97468.63;5015550;28;22177;-64
2023/05/25 10:39:56;;;;;;;6.57;4.77;;;;;;;19.03;54.75;97480.91;5040750;28;21848;-62
2023/05/25 10:42:26;;;;;;;7.30;5.33;;;;;;;18.99;57.50;97491.28;5011644;28;20222;-62
2023/05/25 10:44:55;;;;;;;8.73;5.90;;;;;;;19.00;53.82;97478.69;5018770;28;20479;-64
2023/05/25 10:47:23;;;;;;;5.87;4.70;;;;;;;19.15;57.57;97479.06;5046375;28;20632;-63
2023/05/25 10:49:53;;;;;;;6.03;5.03;;;;;;;19.33;58.92;97475.44;5032213;28;20206;-63
2023/05/25 10:52:21;;;;;;;6.47;5.20;;;;;;;19.32;56.04;97473.81;5037483;28;20245;-63
2023/05/25 10:54:49;;;;;;;7.67;5.40;;;;;;;19.41;58.11;97466.22;5039680;28;20206;-63
2023/05/25 10:57:22;;;;;;;7.23;5.10;;;;;;;19.45;54.91;97451.28;5029761;28;20343;-62
2023/05/25 10:59:54;;;;;;;7.10;5.00;;;;;;;19.23;52.58;97451.03;4997659;28;20626;-62
2023/05/25 11:02:23;;;;;;;5.70;5.13;;;;;;;19.54;57.16;97475.94;5035723;28;20609;-62
2023/05/25 11:04:51;;;;;;;8.00;5.13;;;;;;;19.77;58.56;97467.00;5012524;28;20927;-63
2023/05/25 11:07:21;;;;;;;5.53;5.00;;;;;;;19.88;57.14;97469.91;5045628;28;20298;-61
2023/05/25 11:09:57;;;;;;;7.83;5.03;;;;;;;19.85;54.03;97465.81;4997902;28;20487;-63
2023/05/25 11:12:27;;;;;;;10.97;5.47;;;;;;;19.53;53.01;97467.03;5010411;28;20269;-64
2023/05/25 11:15:14;;;;;;;6.17;4.90;;;;;;;19.74;59.46;97475.56;4993634;28;20781;-60
2023/05/25 11:17:46;;;;;;;7.67;5.10;;;;;;;19.98;53.37;97469.34;5046202;28;20550;-62
2023/05/25 11:20:26;;;;;;;5.90;5.40;;;;;;;20.34;58.14;97472.72;5016597;28;20521;-61
2023/05/25 11:22:54;;;;;;;6.03;5.43;;;;;;;20.39;53.02;97480.91;5020527;28;20509;-61
2023/05/25 11:25:37;;;;;;;5.53;5.03;;;;;;;20.32;49.68;97478.34;5048023;28;20206;-62
2023/05/25 11:28:09;;;;;;;6.33;4.60;;;;;;;20.48;49.91;97478.66;5002822;28;22045;-62
2023/05/25 11:30:39;;;;;;;5.53;4.63;;;;;;;20.65;51.38;97466.03;5048624;28;20250;-63
2023/05/25 11:33:07;;;;;;;7.17;5.40;;;;;;;20.41;49.63;97462.63;4976250;28;20639;-64
2023/05/25 11:35:36;;;;;;;6.20;4.40;;;;;;;20.05;49.19;97467.31;5035609;28;20214;-65
2023/05/25 11:38:06;;;;;;;5.27;4.73;;;;;;;20.45;52.22;97469.16;4993643;28;20869;-63